createdAt,value
2018-03-14T00:00:52.614Z,6.48
2018-03-14T00:01:52.671Z,6.43
2018-03-14T00:02:52.727Z,6.40
2018-03-14T00:03:53.032Z,6.45
2018-03-14T00:04:52.838Z,6.46
2018-03-14T00:05:52.894Z,6.46
2018-03-14T00:06:52.949Z,6.43
2018-03-14T00:07:53.004Z,6.40
2018-03-14T00:08:53.061Z,6.38
2018-03-14T00:09:53.115Z,6.27
2018-03-14T00:10:53.171Z,6.40
2018-03-14T00:11:53.226Z,6.28
2018-03-14T00:12:53.282Z,6.27
2018-03-14T00:13:53.337Z,6.40
2018-03-14T00:14:53.393Z,6.35
2018-03-14T00:15:53.448Z,6.40
2018-03-14T00:16:53.508Z,6.36
2018-03-14T00:17:53.562Z,6.51
2018-03-14T00:18:53.613Z,6.50
2018-03-14T00:19:53.672Z,6.38
2018-03-14T00:20:53.726Z,6.33
2018-03-14T00:21:53.783Z,6.33
2018-03-14T00:22:53.835Z,6.46
2018-03-14T00:23:53.891Z,6.42
2018-03-14T00:24:53.949Z,6.43
2018-03-14T00:25:54.004Z,6.33
2018-03-14T00:26:54.058Z,6.25
2018-03-14T00:27:54.114Z,6.38
2018-03-14T00:28:54.170Z,6.28
2018-03-14T00:29:54.226Z,6.27
2018-03-14T00:30:54.281Z,6.36
2018-03-14T00:31:54.337Z,6.36
2018-03-14T00:32:54.391Z,6.33
2018-03-14T00:33:54.447Z,6.39
2018-03-14T00:34:54.502Z,6.43
2018-03-14T00:35:54.558Z,6.24
2018-03-14T00:36:54.615Z,6.33
2018-03-14T00:37:54.669Z,6.42
2018-03-14T00:38:54.725Z,6.50
2018-03-14T00:39:54.780Z,6.43
2018-03-14T00:40:54.836Z,6.43
2018-03-14T00:41:54.892Z,6.39
2018-03-14T00:42:54.946Z,6.40
2018-03-14T00:43:55.003Z,6.36
2018-03-14T00:44:55.057Z,6.48
2018-03-14T00:45:55.115Z,6.40
2018-03-14T00:46:55.169Z,6.42
2018-03-14T00:47:55.228Z,6.36
2018-03-14T00:48:55.284Z,6.39
2018-03-14T00:49:55.340Z,6.45
2018-03-14T00:50:55.394Z,6.58
2018-03-14T00:51:55.453Z,6.50
2018-03-14T00:52:55.506Z,6.42
2018-03-14T00:53:55.561Z,6.53
2018-03-14T00:54:55.618Z,6.51
2018-03-14T00:55:55.675Z,6.57
2018-03-14T00:56:55.728Z,6.43
2018-03-14T00:57:55.785Z,6.53
2018-03-14T00:58:55.839Z,6.43
2018-03-14T00:59:55.897Z,6.46
2018-03-14T01:00:55.951Z,6.43
2018-03-14T01:01:56.008Z,6.48
2018-03-14T01:02:56.062Z,6.45
2018-03-14T01:03:56.118Z,6.43
2018-03-14T01:04:56.174Z,6.53
2018-03-14T01:05:56.231Z,6.45
2018-03-14T01:06:56.287Z,6.46
2018-03-14T01:07:56.340Z,6.42
2018-03-14T01:08:56.398Z,6.54
2018-03-14T01:09:56.454Z,6.54
2018-03-14T01:10:56.507Z,6.48
2018-03-14T01:11:56.563Z,6.45
2018-03-14T01:12:56.618Z,6.45
2018-03-14T01:13:56.676Z,6.51
2018-03-14T01:14:56.729Z,6.57
2018-03-14T01:15:56.785Z,6.43
2018-03-14T01:16:56.841Z,6.54
2018-03-14T01:17:56.895Z,6.55
2018-03-14T01:18:56.951Z,6.48
2018-03-14T01:19:57.007Z,6.36
2018-03-14T01:20:57.061Z,6.28
2018-03-14T01:21:57.118Z,6.46
2018-03-14T01:22:57.173Z,6.46
2018-03-14T01:23:57.580Z,6.38
2018-03-14T01:24:57.284Z,6.38
2018-03-14T01:25:57.374Z,6.36
2018-03-14T01:26:57.446Z,6.28
2018-03-14T01:27:57.464Z,6.30
2018-03-14T01:28:57.554Z,6.36
2018-03-14T01:29:58.202Z,6.30
2018-03-14T01:30:57.620Z,6.28
2018-03-14T01:31:57.675Z,6.32
2018-03-14T01:32:57.744Z,6.27
2018-03-14T01:33:57.784Z,6.40
2018-03-14T01:34:57.840Z,6.35
2018-03-14T01:35:57.896Z,6.28
2018-03-14T01:36:57.952Z,6.36
2018-03-14T01:37:58.008Z,6.33
2018-03-14T01:38:58.062Z,6.33
2018-03-14T01:39:58.118Z,6.27
2018-03-14T01:40:58.173Z,6.38
2018-03-14T01:41:58.230Z,6.36
2018-03-14T01:42:58.285Z,6.40
2018-03-14T01:43:58.341Z,6.25
2018-03-14T01:44:58.397Z,6.32
2018-03-14T01:45:58.451Z,6.35
2018-03-14T01:46:58.507Z,6.40
2018-03-14T01:47:58.563Z,6.36
2018-03-14T01:48:58.619Z,6.46
2018-03-14T01:49:58.673Z,6.45
2018-03-14T01:50:58.730Z,6.42
2018-03-14T01:51:58.784Z,6.40
2018-03-14T01:52:58.842Z,6.38
2018-03-14T01:53:58.895Z,6.38
2018-03-14T01:54:58.950Z,6.38
2018-03-14T01:55:59.007Z,6.28
2018-03-14T01:56:59.062Z,6.33
2018-03-14T01:57:59.119Z,6.28
2018-03-14T01:58:59.174Z,6.39
2018-03-14T01:59:59.229Z,6.42
2018-03-14T02:00:59.285Z,6.51
2018-03-14T02:01:59.341Z,6.36
2018-03-14T02:02:59.395Z,6.27
2018-03-14T02:03:59.451Z,6.32
2018-03-14T02:04:59.508Z,6.36
2018-03-14T02:05:59.563Z,6.38
2018-03-14T02:06:59.617Z,6.35
2018-03-14T02:07:59.674Z,6.28
2018-03-14T02:08:59.729Z,6.36
2018-03-14T02:09:59.785Z,6.39
2018-03-14T02:10:59.840Z,6.55
2018-03-14T02:11:59.896Z,6.55
2018-03-14T02:12:59.953Z,6.60
2018-03-14T02:14:00.008Z,6.58
2018-03-14T02:15:00.063Z,6.55
2018-03-14T02:16:00.118Z,6.61
2018-03-14T02:17:00.174Z,6.60
2018-03-14T02:18:00.231Z,6.60
2018-03-14T02:19:00.290Z,6.55
2018-03-14T02:20:00.344Z,6.71
2018-03-14T02:21:00.397Z,6.65
2018-03-14T02:22:00.453Z,6.68
2018-03-14T02:23:00.508Z,6.68
2018-03-14T02:24:00.564Z,6.71
2018-03-14T02:25:00.621Z,6.73
2018-03-14T02:26:00.678Z,6.69
2018-03-14T02:27:00.731Z,6.68
2018-03-14T02:28:00.787Z,6.71
2018-03-14T02:29:00.844Z,6.64
2018-03-14T02:30:00.900Z,6.65
2018-03-14T02:31:00.955Z,6.71
2018-03-14T02:32:01.011Z,6.69
2018-03-14T02:33:01.067Z,6.55
2018-03-14T02:34:01.123Z,6.55
2018-03-14T02:35:01.179Z,6.58
2018-03-14T02:36:01.234Z,6.58
2018-03-14T02:37:01.293Z,6.71
2018-03-14T02:38:01.346Z,6.73
2018-03-14T02:39:01.402Z,6.68
2018-03-14T02:40:01.458Z,6.69
2018-03-14T02:41:01.515Z,6.79
2018-03-14T02:42:01.572Z,6.71
2018-03-14T02:43:01.624Z,6.83
2018-03-14T02:44:01.682Z,6.78
2018-03-14T02:45:01.738Z,6.82
2018-03-14T02:46:01.794Z,6.73
2018-03-14T02:47:01.848Z,6.82
2018-03-14T02:48:01.906Z,6.78
2018-03-14T02:49:01.963Z,6.79
2018-03-14T02:50:02.017Z,6.82
2018-03-14T02:51:02.072Z,6.79
2018-03-14T02:52:02.140Z,6.83
2018-03-14T02:53:02.186Z,6.82
2018-03-14T02:54:02.245Z,6.82
2018-03-14T02:55:02.300Z,6.76
2018-03-14T02:56:02.353Z,6.69
2018-03-14T02:57:02.409Z,6.65
2018-03-14T02:58:02.466Z,6.65
2018-03-14T02:59:02.520Z,6.65
2018-03-14T03:00:02.578Z,6.55
2018-03-14T03:01:02.635Z,6.50
2018-03-14T03:02:02.691Z,6.45
2018-03-14T03:03:02.745Z,6.45
2018-03-14T03:04:02.802Z,6.45
2018-03-14T03:05:02.901Z,6.53
2018-03-14T03:06:02.915Z,6.39
2018-03-14T03:07:02.970Z,6.40
2018-03-14T03:08:03.026Z,6.38
2018-03-14T03:09:03.081Z,6.38
2018-03-14T03:10:03.138Z,6.35
2018-03-14T03:11:03.194Z,6.33
2018-03-14T03:12:03.249Z,6.35
2018-03-14T03:13:03.306Z,6.38
2018-03-14T03:14:03.362Z,6.42
2018-03-14T03:15:03.418Z,6.53
2018-03-14T03:16:03.473Z,6.43
2018-03-14T03:17:03.530Z,6.54
2018-03-14T03:18:03.585Z,6.46
2018-03-14T03:19:03.639Z,6.46
2018-03-14T03:20:03.696Z,6.46
2018-03-14T03:21:03.756Z,6.46
2018-03-14T03:22:03.808Z,6.50
2018-03-14T03:23:03.864Z,6.54
2018-03-14T03:24:03.921Z,6.54
2018-03-14T03:25:03.976Z,6.63
2018-03-14T03:26:04.033Z,6.64
2018-03-14T03:27:04.090Z,6.69
2018-03-14T03:28:04.143Z,6.75
2018-03-14T03:29:04.199Z,6.68
2018-03-14T03:30:04.258Z,6.69
2018-03-14T03:31:04.318Z,6.81
2018-03-14T03:32:04.368Z,6.81
2018-03-14T03:33:04.424Z,6.75
2018-03-14T03:34:04.480Z,6.89
2018-03-14T03:35:04.535Z,6.82
2018-03-14T03:36:04.592Z,6.78
2018-03-14T03:37:04.648Z,6.65
2018-03-14T03:38:04.704Z,6.60
2018-03-14T03:39:04.759Z,6.60
2018-03-14T03:40:04.814Z,6.55
2018-03-14T03:41:04.872Z,6.57
2018-03-14T03:42:04.949Z,6.55
2018-03-14T03:43:04.984Z,6.60
2018-03-14T03:44:05.039Z,6.61
2018-03-14T03:45:05.096Z,6.55
2018-03-14T03:46:05.152Z,6.55
2018-03-14T03:47:05.228Z,6.55
2018-03-14T03:48:05.507Z,6.55
2018-03-14T03:49:05.697Z,6.53
2018-03-14T03:50:05.375Z,6.58
2018-03-14T03:51:05.477Z,6.58
2018-03-14T03:52:05.514Z,6.64
2018-03-14T03:53:05.581Z,6.65
2018-03-14T03:54:05.602Z,6.78
2018-03-14T03:55:05.689Z,6.65
2018-03-14T03:56:05.761Z,6.65
2018-03-14T03:57:05.799Z,6.69
2018-03-14T03:58:05.865Z,6.72
2018-03-14T03:59:06.248Z,6.69
2018-03-14T04:00:05.935Z,6.54
2018-03-14T04:01:06.042Z,6.57
2018-03-14T04:02:06.095Z,6.45
2018-03-14T04:03:06.128Z,6.40
2018-03-14T04:04:06.185Z,6.38
2018-03-14T04:05:06.218Z,6.28
2018-03-14T04:06:06.276Z,6.32
2018-03-14T04:07:06.330Z,6.27
2018-03-14T04:08:06.417Z,6.30
2018-03-14T04:09:06.472Z,6.45
2018-03-14T04:10:06.528Z,6.42
2018-03-14T04:11:06.584Z,6.32
2018-03-14T04:12:06.608Z,6.28
2018-03-14T04:13:06.698Z,6.35
2018-03-14T04:14:06.753Z,6.33
2018-03-14T04:15:06.809Z,6.35
2018-03-14T04:16:06.914Z,6.16
2018-03-14T04:17:06.922Z,6.20
2018-03-14T04:18:06.978Z,6.24
2018-03-14T04:19:07.029Z,6.17
2018-03-14T04:20:07.086Z,6.21
2018-03-14T04:21:07.141Z,6.30
2018-03-14T04:22:07.167Z,6.38
2018-03-14T04:23:07.256Z,6.17
2018-03-14T04:24:07.283Z,6.16
2018-03-14T04:25:07.334Z,6.16
2018-03-14T04:26:07.390Z,6.01
2018-03-14T04:27:07.444Z,6.11
2018-03-14T04:28:07.501Z,5.99
2018-03-14T04:29:07.557Z,6.02
2018-03-14T04:30:07.611Z,6.03
2018-03-14T04:31:07.668Z,6.05
2018-03-14T04:32:07.727Z,6.03
2018-03-14T04:33:07.788Z,5.88
2018-03-14T04:34:07.835Z,6.10
2018-03-14T04:35:07.889Z,6.03
2018-03-14T04:36:07.947Z,6.11
2018-03-14T04:37:08.002Z,6.05
2018-03-14T04:38:08.058Z,6.01
2018-03-14T04:39:08.112Z,5.93
2018-03-14T04:40:08.169Z,5.87
2018-03-14T04:41:08.225Z,5.88
2018-03-14T04:42:08.280Z,5.74
2018-03-14T04:43:08.334Z,5.80
2018-03-14T04:44:08.391Z,5.92
2018-03-14T04:45:08.448Z,5.84
2018-03-14T04:46:08.753Z,5.92
2018-03-14T04:47:08.558Z,5.98
2018-03-14T04:48:08.612Z,6.02
2018-03-14T04:49:08.674Z,6.08
2018-03-14T04:50:08.726Z,6.01
2018-03-14T04:51:08.804Z,5.85
2018-03-14T04:52:08.837Z,5.88
2018-03-14T04:53:08.892Z,5.84
2018-03-14T04:54:08.947Z,5.84
2018-03-14T04:55:09.000Z,5.90
2018-03-14T04:56:09.058Z,5.83
2018-03-14T04:57:09.113Z,5.90
2018-03-14T04:58:09.169Z,5.87
2018-03-14T04:59:09.224Z,5.90
2018-03-14T05:00:09.293Z,5.75
2018-03-14T05:01:09.346Z,5.75
2018-03-14T05:02:09.727Z,5.69
2018-03-14T05:03:09.445Z,5.67
2018-03-14T05:04:09.500Z,5.58
2018-03-14T05:05:09.556Z,5.59
2018-03-14T05:06:09.653Z,5.58
2018-03-14T05:07:09.720Z,5.45
2018-03-14T05:08:10.004Z,5.44
2018-03-14T05:09:09.822Z,5.51
2018-03-14T05:10:09.874Z,5.42
2018-03-14T05:11:09.888Z,5.41
2018-03-14T05:12:09.946Z,5.37
2018-03-14T05:13:09.998Z,5.42
2018-03-14T05:14:10.056Z,5.44
2018-03-14T05:15:10.107Z,5.49
2018-03-14T05:16:10.164Z,5.41
2018-03-14T05:17:10.219Z,5.40
2018-03-14T05:18:10.275Z,5.27
2018-03-14T05:19:10.329Z,5.29
2018-03-14T05:20:10.385Z,5.38
2018-03-14T05:21:10.440Z,5.42
2018-03-14T05:22:10.496Z,5.47
2018-03-14T05:23:10.549Z,5.41
2018-03-14T05:24:10.604Z,5.38
2018-03-14T05:25:10.660Z,5.45
2018-03-14T05:26:10.730Z,5.52
2018-03-14T05:27:10.769Z,5.35
2018-03-14T05:28:10.824Z,5.26
2018-03-14T05:29:10.882Z,5.15
2018-03-14T05:30:11.510Z,5.27
2018-03-14T05:31:10.990Z,5.15
2018-03-14T05:32:11.045Z,5.14
2018-03-14T05:33:11.154Z,5.23
2018-03-14T05:34:11.566Z,5.17
2018-03-14T05:35:11.259Z,5.15
2018-03-14T05:36:11.329Z,4.97
2018-03-14T05:37:11.318Z,5.14
2018-03-14T05:38:11.444Z,5.15
2018-03-14T05:39:11.452Z,5.04
2018-03-14T05:40:11.590Z,4.90
2018-03-14T05:41:11.578Z,4.88
2018-03-14T05:42:11.630Z,4.79
2018-03-14T05:43:11.682Z,4.83
2018-03-14T05:44:12.024Z,4.80
2018-03-14T05:45:11.898Z,4.83
2018-03-14T05:46:11.818Z,4.84
2018-03-14T05:47:12.116Z,4.88
2018-03-14T05:48:11.920Z,4.97
2018-03-14T05:49:11.974Z,5.01
2018-03-14T05:50:12.029Z,4.80
2018-03-14T05:51:12.115Z,4.61
2018-03-14T05:52:12.138Z,4.56
2018-03-14T05:53:12.193Z,4.53
2018-03-14T05:54:12.248Z,4.61
2018-03-14T05:55:12.303Z,4.65
2018-03-14T05:56:12.356Z,4.74
2018-03-14T05:57:12.411Z,4.74
2018-03-14T05:58:12.465Z,4.77
2018-03-14T05:59:12.521Z,4.67
2018-03-14T06:00:13.441Z,4.62
2018-03-14T06:01:12.658Z,4.68
2018-03-14T06:02:12.713Z,4.68
2018-03-14T06:03:12.823Z,4.64
2018-03-14T06:04:12.793Z,4.61
2018-03-14T06:05:12.845Z,4.77
2018-03-14T06:06:12.900Z,5.06
2018-03-14T06:07:12.953Z,5.05
2018-03-14T06:08:13.008Z,4.96
2018-03-14T06:09:13.063Z,4.61
2018-03-14T06:10:13.156Z,4.47
2018-03-14T06:11:13.209Z,4.36
2018-03-14T06:12:13.603Z,4.26
2018-03-14T06:13:13.650Z,4.34
2018-03-14T06:14:13.371Z,4.44
2018-03-14T06:15:13.389Z,4.50
2018-03-14T06:16:13.443Z,4.64
2018-03-14T06:17:13.497Z,4.72
2018-03-14T06:18:13.550Z,4.83
2018-03-14T06:19:13.603Z,4.84
2018-03-14T06:20:13.661Z,4.80
2018-03-14T06:21:13.714Z,4.75
2018-03-14T06:22:13.777Z,4.72
2018-03-14T06:23:13.868Z,4.67
2018-03-14T06:24:13.909Z,4.69
2018-03-14T06:25:14.017Z,4.67
2018-03-14T06:26:14.067Z,4.69
2018-03-14T06:27:14.043Z,4.62
2018-03-14T06:28:14.144Z,4.72
2018-03-14T06:29:14.181Z,4.83
2018-03-14T06:30:14.240Z,4.72
2018-03-14T06:31:14.285Z,4.69
2018-03-14T06:32:14.347Z,4.67
2018-03-14T06:33:14.367Z,4.51
2018-03-14T06:34:14.441Z,4.49
2018-03-14T06:35:14.475Z,4.39
2018-03-14T06:36:15.325Z,4.44
2018-03-14T06:37:14.604Z,4.44
2018-03-14T06:38:14.722Z,4.43
2018-03-14T06:39:14.699Z,4.31
2018-03-14T06:40:14.747Z,4.42
2018-03-14T06:41:14.804Z,4.39
2018-03-14T06:42:14.859Z,4.43
2018-03-14T06:43:14.912Z,4.46
2018-03-14T06:44:14.967Z,4.47
2018-03-14T06:45:15.021Z,4.56
2018-03-14T06:46:15.076Z,4.56
2018-03-14T06:47:15.130Z,4.62
2018-03-14T06:48:15.184Z,4.64
2018-03-14T06:49:15.240Z,4.69
2018-03-14T06:50:15.294Z,4.69
2018-03-14T06:51:15.347Z,4.72
2018-03-14T06:52:15.403Z,4.69
2018-03-14T06:53:15.459Z,4.68
2018-03-14T06:54:15.567Z,4.84
2018-03-14T06:55:15.566Z,4.79
2018-03-14T06:56:15.622Z,4.79
2018-03-14T06:57:16.384Z,4.75
2018-03-14T06:58:15.731Z,4.84
2018-03-14T06:59:15.785Z,4.88
2018-03-14T07:00:15.840Z,5.04
2018-03-14T07:01:15.898Z,4.93
2018-03-14T07:02:15.949Z,5.02
2018-03-14T07:03:16.503Z,5.02
2018-03-14T07:04:16.058Z,5.02
2018-03-14T07:05:16.113Z,5.08
2018-03-14T07:06:16.169Z,5.09
2018-03-14T07:07:16.223Z,5.09
2018-03-14T07:08:16.279Z,5.15
2018-03-14T07:09:16.333Z,5.19
2018-03-14T07:10:16.399Z,5.15
2018-03-14T07:11:16.444Z,5.22
2018-03-14T07:12:16.499Z,5.14
2018-03-14T07:13:16.554Z,5.20
2018-03-14T07:14:16.629Z,5.23
2018-03-14T07:15:16.664Z,5.26
2018-03-14T07:16:16.719Z,5.23
2018-03-14T07:17:16.774Z,5.26
2018-03-14T07:18:16.831Z,5.38
2018-03-14T07:19:17.213Z,5.29
2018-03-14T07:20:16.945Z,5.40
2018-03-14T07:21:16.996Z,5.35
2018-03-14T07:22:17.052Z,5.42
2018-03-14T07:23:17.105Z,5.47
2018-03-14T07:24:17.162Z,5.48
2018-03-14T07:25:17.216Z,5.45
2018-03-14T07:26:17.272Z,5.56
2018-03-14T07:27:17.332Z,5.62
2018-03-14T07:28:17.416Z,5.55
2018-03-14T07:29:17.476Z,5.63
2018-03-14T07:30:17.493Z,5.74
2018-03-14T07:31:17.576Z,5.73
2018-03-14T07:32:17.658Z,5.70
2018-03-14T07:33:17.713Z,5.74
2018-03-14T07:34:17.750Z,5.80
2018-03-14T07:35:17.772Z,5.93
2018-03-14T07:36:17.828Z,5.99
2018-03-14T07:37:17.884Z,6.11
2018-03-14T07:38:18.022Z,6.11
2018-03-14T07:39:18.051Z,6.17
2018-03-14T07:40:18.078Z,6.17
2018-03-14T07:41:18.199Z,6.21
2018-03-14T07:42:18.211Z,6.30
2018-03-14T07:43:18.268Z,6.32
2018-03-14T07:44:18.316Z,6.36
2018-03-14T07:45:18.342Z,6.35
2018-03-14T07:46:18.436Z,6.33
2018-03-14T07:47:18.525Z,6.42
2018-03-14T07:48:18.495Z,6.33
2018-03-14T07:49:18.552Z,6.45
2018-03-14T07:50:18.608Z,6.42
2018-03-14T07:51:18.664Z,6.39
2018-03-14T07:52:18.720Z,6.39
2018-03-14T07:53:18.777Z,6.58
2018-03-14T07:54:18.832Z,6.53
2018-03-14T07:55:18.887Z,6.69
2018-03-14T07:56:18.944Z,6.69
2018-03-14T07:57:19.000Z,6.64
2018-03-14T07:58:19.055Z,6.69
2018-03-14T07:59:19.136Z,6.72
2018-03-14T08:00:19.167Z,6.65
2018-03-14T08:01:19.225Z,6.75
2018-03-14T08:02:19.282Z,6.73
2018-03-14T08:03:19.337Z,6.79
2018-03-14T08:04:19.394Z,6.81
2018-03-14T08:05:19.452Z,6.91
2018-03-14T08:06:19.511Z,6.89
2018-03-14T08:07:19.562Z,6.91
2018-03-14T08:08:19.619Z,7.01
2018-03-14T08:09:19.674Z,7.00
2018-03-14T08:10:19.734Z,7.07
2018-03-14T08:11:19.789Z,7.19
2018-03-14T08:12:19.848Z,7.15
2018-03-14T08:13:19.927Z,7.14
2018-03-14T08:14:19.956Z,7.34
2018-03-14T08:15:20.013Z,7.44
2018-03-14T08:16:20.069Z,7.47
2018-03-14T08:17:20.127Z,7.62
2018-03-14T08:18:20.184Z,7.81
2018-03-14T08:19:20.240Z,7.79
2018-03-14T08:20:20.371Z,7.99
2018-03-14T08:21:20.664Z,8.07
2018-03-14T08:22:20.411Z,8.20
2018-03-14T08:23:20.493Z,8.13
2018-03-14T08:24:20.524Z,8.13
2018-03-14T08:25:20.612Z,8.18
2018-03-14T08:26:20.638Z,8.14
2018-03-14T08:27:20.694Z,8.29
2018-03-14T08:28:20.751Z,8.29
2018-03-14T08:29:20.810Z,8.37
2018-03-14T08:30:20.866Z,8.40
2018-03-14T08:31:20.921Z,8.40
2018-03-14T08:32:20.979Z,8.49
2018-03-14T08:33:21.036Z,8.46
2018-03-14T08:34:21.095Z,8.52
2018-03-14T08:35:21.149Z,8.67
2018-03-14T08:36:21.207Z,8.64
2018-03-14T08:37:21.264Z,8.73
2018-03-14T08:38:21.321Z,8.73
2018-03-14T08:39:21.377Z,8.89
2018-03-14T08:40:21.965Z,8.91
2018-03-14T08:41:21.521Z,8.94
2018-03-14T08:42:21.550Z,8.93
2018-03-14T08:43:21.607Z,9.20
2018-03-14T08:44:21.767Z,9.24
2018-03-14T08:45:22.139Z,9.17
2018-03-14T08:46:21.785Z,8.96
2018-03-14T08:47:21.836Z,9.06
2018-03-14T08:48:21.895Z,9.20
2018-03-14T08:49:21.959Z,9.27
2018-03-14T08:50:22.351Z,9.32
2018-03-14T08:51:22.068Z,9.34
2018-03-14T08:52:22.501Z,9.41
2018-03-14T08:53:22.694Z,9.42
2018-03-14T08:54:22.273Z,9.37
2018-03-14T08:55:22.300Z,9.37
2018-03-14T08:56:22.358Z,9.16
2018-03-14T08:57:22.420Z,9.16
2018-03-14T08:58:22.474Z,9.31
2018-03-14T08:59:22.532Z,9.37
2018-03-14T09:00:22.591Z,9.55
2018-03-14T09:01:22.649Z,9.53
2018-03-14T09:02:22.709Z,9.52
2018-03-14T09:03:22.764Z,9.35
2018-03-14T09:04:22.823Z,9.32
2018-03-14T09:05:22.880Z,9.23
2018-03-14T09:06:22.939Z,9.27
2018-03-14T09:07:23.010Z,9.12
2018-03-14T09:08:23.057Z,9.04
2018-03-14T09:09:23.120Z,9.12
2018-03-14T09:10:23.173Z,9.08
2018-03-14T09:11:23.229Z,9.12
2018-03-14T09:12:23.288Z,9.00
2018-03-14T09:13:23.450Z,8.86
2018-03-14T09:14:23.732Z,8.94
2018-03-14T09:15:24.188Z,8.96
2018-03-14T09:16:23.520Z,8.96
2018-03-14T09:17:23.580Z,9.01
2018-03-14T09:18:23.638Z,9.12
2018-03-14T09:19:23.729Z,9.31
2018-03-14T09:20:23.753Z,9.32
2018-03-14T09:21:24.256Z,9.34
2018-03-14T09:22:23.870Z,9.35
2018-03-14T09:23:23.930Z,9.19
2018-03-14T09:24:23.985Z,9.15
2018-03-14T09:25:24.226Z,9.12
2018-03-14T09:26:24.101Z,9.16
2018-03-14T09:27:24.158Z,9.16
2018-03-14T09:28:24.220Z,9.26
2018-03-14T09:29:24.274Z,9.30
2018-03-14T09:30:24.333Z,9.31
2018-03-14T09:31:24.392Z,9.32
2018-03-14T09:32:24.447Z,9.34
2018-03-14T09:33:24.510Z,9.32
2018-03-14T09:34:24.567Z,9.40
2018-03-14T09:35:24.621Z,9.38
2018-03-14T09:36:24.680Z,9.45
2018-03-14T09:37:24.767Z,9.40
2018-03-14T09:38:24.798Z,9.53
2018-03-14T09:39:24.855Z,9.59
2018-03-14T09:40:25.344Z,9.70
2018-03-14T09:41:25.009Z,9.83
2018-03-14T09:42:25.036Z,9.86
2018-03-14T09:43:25.086Z,9.91
2018-03-14T09:44:25.151Z,9.77
2018-03-14T09:45:25.202Z,9.78
2018-03-14T09:46:25.846Z,9.98
2018-03-14T09:47:26.178Z,10.02
2018-03-14T09:48:29.450Z,10.09
2018-03-14T09:49:25.920Z,10.06
2018-03-14T09:50:25.510Z,10.11
2018-03-14T09:51:25.595Z,10.10
2018-03-14T09:52:25.610Z,10.20
2018-03-14T09:53:25.676Z,10.25
2018-03-14T09:54:25.730Z,10.22
2018-03-14T09:55:25.785Z,10.13
2018-03-14T09:56:25.843Z,10.10
2018-03-14T09:57:25.921Z,10.32
2018-03-14T09:58:25.960Z,10.46
2018-03-14T09:59:26.021Z,10.38
2018-03-14T10:00:26.077Z,10.16
2018-03-14T10:01:26.136Z,10.10
2018-03-14T10:02:26.194Z,10.09
2018-03-14T10:03:26.253Z,10.16
2018-03-14T10:04:26.312Z,10.18
2018-03-14T10:05:26.370Z,10.06
2018-03-14T10:06:26.429Z,10.14
2018-03-14T10:07:26.491Z,10.17
2018-03-14T10:08:26.548Z,10.43
2018-03-14T10:09:26.603Z,10.47
2018-03-14T10:10:26.663Z,10.60
2018-03-14T10:11:26.722Z,10.81
2018-03-14T10:12:26.779Z,10.84
2018-03-14T10:13:26.839Z,10.68
2018-03-14T10:14:26.898Z,10.73
2018-03-14T10:15:26.956Z,10.65
2018-03-14T10:16:27.019Z,10.75
2018-03-14T10:17:27.075Z,10.70
2018-03-14T10:18:27.136Z,10.52
2018-03-14T10:19:27.191Z,10.51
2018-03-14T10:20:27.267Z,10.76
2018-03-14T10:21:27.310Z,10.87
2018-03-14T10:22:27.370Z,11.17
2018-03-14T10:23:27.429Z,11.36
2018-03-14T10:24:27.555Z,11.53
2018-03-14T10:25:27.632Z,11.54
2018-03-14T10:26:27.608Z,11.54
2018-03-14T10:27:27.664Z,11.60
2018-03-14T10:28:27.726Z,11.67
2018-03-14T10:29:27.787Z,11.66
2018-03-14T10:30:28.382Z,11.66
2018-03-14T10:31:27.904Z,11.48
2018-03-14T10:32:27.964Z,11.64
2018-03-14T10:33:28.022Z,11.60
2018-03-14T10:34:28.084Z,11.77
2018-03-14T10:35:28.143Z,11.79
2018-03-14T10:36:28.207Z,11.64
2018-03-14T10:37:28.263Z,11.74
2018-03-14T10:38:28.335Z,11.62
2018-03-14T10:39:28.385Z,11.66
2018-03-14T10:40:28.446Z,11.67
2018-03-14T10:41:28.512Z,11.69
2018-03-14T10:42:28.577Z,11.60
2018-03-14T10:43:28.638Z,11.79
2018-03-14T10:44:28.685Z,11.75
2018-03-14T10:45:28.750Z,11.81
2018-03-14T10:46:28.808Z,11.85
2018-03-14T10:47:28.867Z,11.75
2018-03-14T10:48:28.929Z,11.69
2018-03-14T10:49:29.793Z,11.64
2018-03-14T10:50:29.049Z,11.67
2018-03-14T10:51:29.110Z,11.72
2018-03-14T10:52:29.168Z,11.77
2018-03-14T10:53:29.230Z,11.64
2018-03-14T10:54:29.290Z,11.66
2018-03-14T10:55:29.350Z,11.70
2018-03-14T10:56:29.412Z,11.63
2018-03-14T10:57:29.473Z,11.74
2018-03-14T10:58:29.532Z,11.94
2018-03-14T10:59:29.592Z,12.05
2018-03-14T11:00:29.654Z,12.23
2018-03-14T11:01:29.716Z,12.31
2018-03-14T11:02:29.776Z,12.44
2018-03-14T11:03:29.842Z,12.61
2018-03-14T11:04:29.897Z,12.62
2018-03-14T11:05:29.965Z,12.61
2018-03-14T11:06:30.018Z,12.46
2018-03-14T11:07:30.078Z,12.22
2018-03-14T11:08:30.144Z,12.41
2018-03-14T11:09:30.199Z,12.61
2018-03-14T11:10:30.262Z,12.61
2018-03-14T11:11:30.321Z,12.54
2018-03-14T11:12:30.382Z,12.66
2018-03-14T11:13:30.444Z,12.76
2018-03-14T11:14:30.507Z,13.09
2018-03-14T11:15:30.568Z,13.51
2018-03-14T11:16:30.628Z,13.88
2018-03-14T11:17:30.690Z,14.16
2018-03-14T11:18:30.752Z,14.64
2018-03-14T11:19:30.814Z,15.64
2018-03-14T11:20:31.197Z,16.27
2018-03-14T11:21:30.958Z,15.78
2018-03-14T11:22:31.002Z,15.49
2018-03-14T11:23:31.065Z,14.38
2018-03-14T11:24:31.131Z,13.79
2018-03-14T11:25:31.226Z,13.41
2018-03-14T11:26:31.299Z,13.38
2018-03-14T11:27:31.368Z,13.81
2018-03-14T11:28:31.776Z,13.87
2018-03-14T11:29:31.452Z,13.80
2018-03-14T11:30:31.512Z,13.69
2018-03-14T11:31:31.593Z,13.62
2018-03-14T11:32:31.639Z,14.69
2018-03-14T11:33:31.700Z,15.43
2018-03-14T11:34:31.817Z,15.59
2018-03-14T11:35:31.826Z,14.75
2018-03-14T11:36:31.890Z,14.05
2018-03-14T11:37:31.953Z,13.91
2018-03-14T11:38:32.021Z,13.61
2018-03-14T11:39:32.078Z,13.99
2018-03-14T11:40:32.143Z,14.67
2018-03-14T11:41:32.206Z,14.30
2018-03-14T11:42:32.270Z,13.25
2018-03-14T11:43:32.333Z,13.16
2018-03-14T11:44:32.395Z,13.01
2018-03-14T11:45:32.460Z,12.63
2018-03-14T11:46:32.524Z,12.62
2018-03-14T11:47:32.587Z,12.67
2018-03-14T11:48:32.649Z,12.77
2018-03-14T11:49:32.711Z,12.85
2018-03-14T11:50:32.779Z,12.99
2018-03-14T11:51:32.838Z,14.01
2018-03-14T11:52:32.900Z,14.93
2018-03-14T11:53:32.964Z,15.78
2018-03-14T11:54:33.026Z,15.07
2018-03-14T11:55:33.099Z,14.59
2018-03-14T11:56:33.150Z,15.03
2018-03-14T11:57:33.214Z,15.77
2018-03-14T11:58:33.292Z,15.01
2018-03-14T11:59:33.340Z,14.71
2018-03-14T12:00:33.402Z,16.03
2018-03-14T12:01:33.465Z,16.99
2018-03-14T12:02:33.530Z,17.76
2018-03-14T12:03:33.591Z,18.20
2018-03-14T12:04:33.659Z,18.28
2018-03-14T12:05:33.738Z,19.13
2018-03-14T12:06:33.783Z,19.45
2018-03-14T12:07:33.844Z,19.53
2018-03-14T12:08:33.909Z,19.50
2018-03-14T12:09:33.973Z,19.61
2018-03-14T12:10:34.037Z,19.85
2018-03-14T12:11:34.101Z,19.58
2018-03-14T12:12:34.169Z,19.31
2018-03-14T12:13:34.234Z,18.46
2018-03-14T12:14:34.298Z,18.64
2018-03-14T12:15:34.363Z,18.57
2018-03-14T12:16:34.429Z,18.64
2018-03-14T12:17:34.494Z,18.10
2018-03-14T12:18:34.569Z,18.19
2018-03-14T12:19:34.634Z,17.60
2018-03-14T12:20:34.692Z,18.14
2018-03-14T12:21:34.759Z,18.16
2018-03-14T12:22:34.826Z,18.11
2018-03-14T12:23:34.931Z,17.54
2018-03-14T12:24:34.958Z,17.99
2018-03-14T12:25:35.025Z,17.92
2018-03-14T12:26:35.090Z,17.89
2018-03-14T12:27:35.157Z,17.22
2018-03-14T12:28:35.222Z,16.33
2018-03-14T12:29:35.288Z,15.71
2018-03-14T12:30:35.354Z,15.56
2018-03-14T12:31:36.262Z,15.46
2018-03-14T12:32:36.083Z,16.51
2018-03-14T12:33:35.553Z,17.27
2018-03-14T12:34:35.618Z,17.57
2018-03-14T12:35:35.687Z,17.57
2018-03-14T12:36:35.749Z,18.10
2018-03-14T12:37:35.814Z,15.86
2018-03-14T12:38:35.879Z,14.41
2018-03-14T12:39:35.945Z,13.87
2018-03-14T12:40:36.012Z,13.66
2018-03-14T12:41:36.079Z,13.47
2018-03-14T12:42:36.140Z,13.46
2018-03-14T12:43:36.204Z,13.39
2018-03-14T12:44:36.270Z,13.28
2018-03-14T12:45:36.341Z,13.09
2018-03-14T12:46:36.397Z,13.07
2018-03-14T12:47:36.462Z,12.96
2018-03-14T12:48:36.526Z,12.95
2018-03-14T12:49:36.588Z,12.92
2018-03-14T12:50:36.652Z,13.06
2018-03-14T12:51:36.716Z,13.04
2018-03-14T12:52:36.778Z,13.06
2018-03-14T12:53:36.841Z,13.03
2018-03-14T12:54:36.904Z,13.04
2018-03-14T12:55:36.967Z,12.98
2018-03-14T12:56:37.029Z,12.87
2018-03-14T12:57:37.092Z,12.81
2018-03-14T12:58:37.158Z,12.92
2018-03-14T12:59:37.217Z,12.81
2018-03-14T13:00:37.278Z,12.81
2018-03-14T13:01:37.340Z,12.81
2018-03-14T13:02:37.402Z,12.80
2018-03-14T13:03:37.463Z,12.71
2018-03-14T13:04:37.528Z,12.74
2018-03-14T13:05:37.587Z,12.71
2018-03-14T13:06:37.648Z,12.69
2018-03-14T13:07:37.710Z,12.69
2018-03-14T13:08:37.771Z,12.74
2018-03-14T13:09:37.832Z,12.67
2018-03-14T13:10:38.205Z,12.66
2018-03-14T13:11:38.021Z,12.62
2018-03-14T13:12:38.016Z,12.62